Time;durP1;ratioP1;P1;durP2;ratioP2;P2;SDS_P1;SDS_P2;PMS_P1;PMS_P2;Temp;Humidity;BMP_temperature;BMP_pressure;BME280_temperature;BME280_humidity;BME280_pressure;Samples;Min_cycle;Max_cycle;Signal;HPM_P1;HPM_P2
2023/06/25 00:01:56;;;;;;;7.13;4.47;;;;;;;;;;5093785;28;19920;-62
2023/06/25 00:04:23;;;;;;;5.63;4.40;;;;;;;;;;5093618;28;20048;-63
2023/06/25 00:06:49;;;;;;;6.97;5.00;;;;;;;;;;5113692;28;20048;-63
2023/06/25 00:09:17;;;;;;;7.00;5.28;;;;;;;;;;5110804;28;20157;-63
2023/06/25 00:11:45;;;;;;;6.43;4.53;;;;;;;;;;5109295;28;20048;-63
2023/06/25 00:14:12;;;;;;;5.50;4.60;;;;;;;;;;5090231;28;20476;-63
2023/06/25 00:16:40;;;;;;;9.15;4.68;;;;;;;;;;5093182;28;20052;-63
2023/06/25 00:19:07;;;;;;;6.53;4.85;;;;;;;;;;5090456;28;20059;-62
2023/06/25 00:21:34;;;;;;;5.82;4.72;;;;;;;;;;5092856;28;20416;-63
2023/06/25 00:24:01;;;;;;;9.65;4.88;;;;;;;;;;5092737;28;20044;-63
2023/06/25 00:26:30;;;;;;;7.68;4.80;;;;;;;;;;5092950;28;20063;-63
2023/06/25 00:28:58;;;;;;;6.30;5.32;;;;;;;;;;5090556;28;20052;-63
2023/06/25 00:31:27;;;;;;;7.60;4.97;;;;;;;;;;5093097;28;20055;-63
2023/06/25 00:33:54;;;;;;;5.47;4.25;;;;;;;;;;5092667;28;20052;-63
2023/06/25 00:36:21;;;;;;;6.22;4.50;;;;;;;;;;5092336;28;20052;-63
2023/06/25 00:38:48;;;;;;;6.78;4.80;;;;;;;;;;5092860;28;20468;-63
2023/06/25 00:41:16;;;;;;;8.50;4.90;;;;;;;;;;5092449;28;20413;-63
2023/06/25 00:43:43;;;;;;;6.15;4.60;;;;;;;;;;5090187;28;20055;-63
2023/06/25 00:46:15;;;;;;;9.05;5.55;;;;;;;;;;5092805;28;20070;-63
2023/06/25 00:48:47;;;;;;;13.25;5.53;;;;;;;;;;5092575;28;20493;-63
2023/06/25 00:51:14;;;;;;;6.68;5.20;;;;;;;;;;5092880;28;20051;-63
2023/06/25 00:53:41;;;;;;;8.45;5.35;;;;;;;;;;5091457;28;20044;-63
2023/06/25 00:56:09;;;;;;;5.57;4.40;;;;;;;;;;5093124;28;20063;-63
2023/06/25 00:58:38;;;;;;;8.20;4.63;;;;;;;;;;5083677;28;20056;-63
2023/06/25 01:01:11;;;;;;;9.70;5.28;;;;;;;;;;5092699;28;20048;-63
2023/06/25 01:03:43;;;;;;;6.63;4.95;;;;;;;;;;5092423;28;20051;-63
2023/06/25 01:06:11;;;;;;;7.97;5.18;;;;;;;;;;5092640;28;20389;-63
2023/06/25 01:08:39;;;;;;;9.75;5.28;;;;;;;;;;5092582;28;20481;-64
2023/06/25 01:11:09;;;;;;;7.45;4.68;;;;;;;;;;5092422;28;20056;-62
2023/06/25 01:13:36;;;;;;;7.57;5.50;;;;;;;;;;5089941;28;20056;-63
2023/06/25 01:16:03;;;;;;;8.43;5.10;;;;;;;;;;5092371;28;20417;-63
2023/06/25 01:18:30;;;;;;;7.05;5.55;;;;;;;;;;5092245;28;20047;-63
2023/06/25 01:20:59;;;;;;;7.03;5.03;;;;;;;;;;5092439;28;20055;-62
2023/06/25 01:23:29;;;;;;;7.80;4.70;;;;;;;;;;5092409;28;20527;-63
2023/06/25 01:25:56;;;;;;;6.57;4.53;;;;;;;;;;5092021;28;20052;-63
2023/06/25 01:28:23;;;;;;;7.20;4.82;;;;;;;;;;5085067;28;20048;-63
2023/06/25 01:30:52;;;;;;;7.75;5.22;;;;;;;;;;5092518;28;20055;-62
2023/06/25 01:33:19;;;;;;;8.60;5.22;;;;;;;;;;5092538;28;20404;-63
2023/06/25 01:35:45;;;;;;;10.27;5.43;;;;;;;;;;5092330;28;20383;-63
2023/06/25 01:38:13;;;;;;;8.13;5.78;;;;;;;;;;5092574;28;20587;-63
2023/06/25 01:40:41;;;;;;;8.75;5.25;;;;;;;;;;5092720;28;20060;-63
2023/06/25 01:43:08;;;;;;;7.57;4.85;;;;;;;;;;5090801;28;20052;-63
2023/06/25 01:45:35;;;;;;;11.25;5.45;;;;;;;;;;5092340;28;20051;-63
2023/06/25 01:48:02;;;;;;;11.07;5.82;;;;;;;;;;5092239;28;20052;-63
2023/06/25 01:50:28;;;;;;;9.00;5.93;;;;;;;;;;5092078;28;20064;-63
2023/06/25 01:52:55;;;;;;;7.70;5.40;;;;;;;;;;5094545;28;20063;-63
2023/06/25 01:55:22;;;;;;;8.60;5.53;;;;;;;;;;5096189;28;20044;-63
2023/06/25 01:57:50;;;;;;;7.32;6.10;;;;;;;;;;5092265;28;20059;-62
2023/06/25 02:00:17;;;;;;;8.55;6.15;;;;;;;;;;5096064;28;20056;-63
2023/06/25 02:02:44;;;;;;;9.15;5.22;;;;;;;;;;5094491;28;20060;-63
2023/06/25 02:05:11;;;;;;;8.23;5.35;;;;;;;;;;5095809;28;20400;-62
2023/06/25 02:07:38;;;;;;;11.68;5.40;;;;;;;;;;5096039;28;20412;-63
2023/06/25 02:10:05;;;;;;;14.40;6.18;;;;;;;;;;5095690;28;20075;-63
2023/06/25 02:12:32;;;;;;;14.75;5.57;;;;;;;;;;5093168;28;20511;-63
2023/06/25 02:15:01;;;;;;;17.48;6.63;;;;;;;;;;5094697;28;20059;-63
2023/06/25 02:17:27;;;;;;;12.23;6.43;;;;;;;;;;5095821;28;20064;-63
2023/06/25 02:19:54;;;;;;;9.30;5.63;;;;;;;;;;5094480;28;20056;-63
2023/06/25 02:22:21;;;;;;;11.60;6.00;;;;;;;;;;5095570;28;20055;-63
2023/06/25 02:24:48;;;;;;;10.35;5.72;;;;;;;;;;5094980;28;20412;-63
2023/06/25 02:27:15;;;;;;;11.82;7.22;;;;;;;;;;5093436;28;20052;-63
2023/06/25 02:29:41;;;;;;;8.93;5.68;;;;;;;;;;5094531;28;20480;-63
2023/06/25 02:32:09;;;;;;;13.07;6.43;;;;;;;;;;5095216;28;20404;-63
2023/06/25 02:34:36;;;;;;;8.43;5.57;;;;;;;;;;5095277;28;20071;-63
2023/06/25 02:37:11;;;;;;;8.05;6.25;;;;;;;;;;5095106;28;20047;-62
2023/06/25 02:39:38;;;;;;;8.77;6.20;;;;;;;;;;5095185;28;20074;-63
2023/06/25 02:42:05;;;;;;;9.82;5.47;;;;;;;;;;5094021;28;20787;-63
2023/06/25 02:44:39;;;;;;;10.63;5.57;;;;;;;;;;5074825;28;20060;-63
2023/06/25 02:47:07;;;;;;;11.50;6.13;;;;;;;;;;5075003;28;20060;-64
2023/06/25 02:49:38;;;;;;;11.10;6.35;;;;;;;;;;5074447;28;20056;-62
2023/06/25 02:52:05;;;;;;;10.05;5.80;;;;;;;;;;5074301;28;20053;-63
2023/06/25 02:54:32;;;;;;;12.20;6.47;;;;;;;;;;5074390;28;20055;-64
2023/06/25 02:56:59;;;;;;;9.95;5.88;;;;;;;;;;5077812;28;20048;-63
2023/06/25 02:59:26;;;;;;;11.63;6.00;;;;;;;;;;5093570;28;20485;-64
2023/06/25 03:01:52;;;;;;;14.05;6.22;;;;;;;;;;5094973;28;20353;-63
2023/06/25 03:04:19;;;;;;;13.23;6.03;;;;;;;;;;5094221;28;20048;-63
2023/06/25 03:06:48;;;;;;;14.20;6.43;;;;;;;;;;5094604;28;20055;-63
2023/06/25 03:09:14;;;;;;;12.95;6.10;;;;;;;;;;5094644;28;20063;-62
2023/06/25 03:11:44;;;;;;;8.30;5.93;;;;;;;;;;5092118;28;20523;-63
2023/06/25 03:14:10;;;;;;;12.70;6.40;;;;;;;;;;5094021;28;20520;-63
2023/06/25 03:16:37;;;;;;;10.60;6.38;;;;;;;;;;5094383;28;20055;-62
2023/06/25 03:19:04;;;;;;;11.13;6.30;;;;;;;;;;5094458;28;20056;-63
2023/06/25 03:21:31;;;;;;;11.85;6.55;;;;;;;;;;5094346;28;20074;-63
2023/06/25 03:23:59;;;;;;;13.23;6.47;;;;;;;;;;5093769;28;20056;-63
2023/06/25 03:26:26;;;;;;;10.18;5.53;;;;;;;;;;5091704;28;20048;-62
2023/06/25 03:28:54;;;;;;;9.38;6.20;;;;;;;;;;5094090;28;20055;-63
2023/06/25 03:31:21;;;;;;;13.48;7.20;;;;;;;;;;5094285;28;20059;-62
2023/06/25 03:33:47;;;;;;;11.13;6.45;;;;;;;;;;5094064;28;20088;-63
2023/06/25 03:36:15;;;;;;;12.75;6.60;;;;;;;;;;5094079;28;20074;-63
2023/06/25 03:38:42;;;;;;;11.65;6.22;;;;;;;;;;5090476;28;20048;-63
2023/06/25 03:41:10;;;;;;;12.95;6.43;;;;;;;;;;5092564;28;20056;-63
2023/06/25 03:43:38;;;;;;;11.52;6.88;;;;;;;;;;5093672;28;20051;-62
2023/06/25 03:46:05;;;;;;;11.48;7.28;;;;;;;;;;5094088;28;20051;-62
2023/06/25 03:48:32;;;;;;;12.75;7.22;;;;;;;;;;5093528;28;20409;-63
2023/06/25 03:50:59;;;;;;;10.02;6.63;;;;;;;;;;5093813;28;20485;-63
2023/06/25 03:53:26;;;;;;;9.57;6.43;;;;;;;;;;5093724;28;20385;-63
2023/06/25 03:55:53;;;;;;;10.30;6.47;;;;;;;;;;5091691;28;20385;-63
2023/06/25 03:58:21;;;;;;;12.15;6.93;;;;;;;;;;5085829;28;20048;-62
2023/06/25 04:00:48;;;;;;;13.32;7.32;;;;;;;;;;5093740;28;20429;-63
2023/06/25 04:03:15;;;;;;;13.77;6.60;;;;;;;;;;5093795;28;20409;-62
2023/06/25 04:05:42;;;;;;;10.45;5.85;;;;;;;;;;5093716;28;20048;-63
2023/06/25 04:08:08;;;;;;;8.30;6.38;;;;;;;;;;5093667;28;20052;-62
2023/06/25 04:10:35;;;;;;;10.88;6.30;;;;;;;;;;5090519;28;20048;-63
2023/06/25 04:13:02;;;;;;;9.63;6.30;;;;;;;;;;5090869;28;20501;-63
2023/06/25 04:15:30;;;;;;;10.82;6.85;;;;;;;;;;5092592;28;20048;-63
2023/06/25 04:17:57;;;;;;;8.48;6.57;;;;;;;;;;5092824;28;20052;-63
2023/06/25 04:20:26;;;;;;;11.57;6.72;;;;;;;;;;5093407;28;20056;-63
2023/06/25 04:22:53;;;;;;;9.77;6.38;;;;;;;;;;5093167;28;20048;-62
2023/06/25 04:25:20;;;;;;;11.90;7.10;;;;;;;;;;5090885;28;20057;-63
2023/06/25 04:27:48;;;;;;;8.65;5.95;;;;;;;;;;5093395;28;20072;-62
2023/06/25 04:30:15;;;;;;;12.25;7.55;;;;;;;;;;5093323;28;20056;-62
2023/06/25 04:32:43;;;;;;;13.32;7.82;;;;;;;;;;5093058;28;20078;-63
2023/06/25 04:35:10;;;;;;;13.23;7.32;;;;;;;;;;5084578;28;20048;-62
2023/06/25 04:37:37;;;;;;;13.95;7.53;;;;;;;;;;5092685;28;20048;-63
2023/06/25 04:40:05;;;;;;;10.52;6.80;;;;;;;;;;5078332;28;20052;-63
2023/06/25 04:42:32;;;;;;;9.10;6.10;;;;;;;;;;5090191;28;20385;-63
2023/06/25 04:44:59;;;;;;;8.98;6.40;;;;;;;;;;5084765;28;20056;-63
2023/06/25 04:47:25;;;;;;;9.88;6.47;;;;;;;;;;5113250;28;20047;-62
2023/06/25 04:49:54;;;;;;;12.55;8.00;;;;;;;;;;5113200;28;20491;-63
2023/06/25 04:52:21;;;;;;;11.80;7.55;;;;;;;;;;5113319;28;20480;-62
2023/06/25 04:54:47;;;;;;;10.48;6.90;;;;;;;;;;5107654;28;20135;-62
2023/06/25 04:57:14;;;;;;;12.98;8.68;;;;;;;;;;5092645;28;20489;-63
2023/06/25 04:59:41;;;;;;;9.32;7.80;;;;;;;;;;5092664;28;20052;-63
2023/06/25 05:02:08;;;;;;;9.68;8.15;;;;;;;;;;5089279;28;20071;-63
2023/06/25 05:04:35;;;;;;;9.57;7.72;;;;;;;;;;5092042;28;20052;-63
2023/06/25 05:07:03;;;;;;;8.63;7.72;;;;;;;;;;5089893;28;20408;-63
2023/06/25 05:09:30;;;;;;;11.17;7.73;;;;;;;;;;5091610;28;20476;-62
2023/06/25 05:12:00;;;;;;;13.43;8.55;;;;;;;;;;5092435;28;20400;-62
2023/06/25 05:14:28;;;;;;;14.13;8.25;;;;;;;;;;5092183;28;20059;-62
2023/06/25 05:16:55;;;;;;;10.80;7.63;;;;;;;;;;5091460;28;20400;-63
2023/06/25 05:19:21;;;;;;;9.15;7.70;;;;;;;;;;5092438;28;20048;-63
2023/06/25 05:21:48;;;;;;;11.38;7.72;;;;;;;;;;5092853;28;20048;-63
2023/06/25 05:24:16;;;;;;;9.35;7.30;;;;;;;;;;5089396;28;20048;-63
2023/06/25 05:26:43;;;;;;;9.32;7.60;;;;;;;;;;5093411;28;20048;-63
2023/06/25 05:29:10;;;;;;;9.50;7.43;;;;;;;;;;5096533;28;20404;-62
2023/06/25 05:31:38;;;;;;;9.13;7.47;;;;;;;;;;5096480;28;20503;-63
2023/06/25 05:34:04;;;;;;;9.32;7.40;;;;;;;;;;5092435;28;20135;-63
2023/06/25 05:36:35;;;;;;;11.43;8.45;;;;;;;;;;5096372;28;20048;-62
2023/06/25 05:39:03;;;;;;;10.52;7.13;;;;;;;;;;5094810;28;20052;-62
2023/06/25 05:41:32;;;;;;;9.02;6.43;;;;;;;;;;5092947;28;20051;-63
2023/06/25 05:44:01;;;;;;;7.80;6.57;;;;;;;;;;5095776;28;20051;-63
2023/06/25 05:46:31;;;;;;;12.00;7.65;;;;;;;;;;5096135;28;20059;-63
2023/06/25 05:48:57;;;;;;;;;;;;;;;;;;5096055;28;20059;-62
2023/06/25 05:51:24;;;;;;;7.70;6.28;;;;;;;;;;5095512;28;19931;-63
2023/06/25 05:53:54;;;;;;;9.77;6.75;;;;;;;;;;5094054;28;20388;-63
2023/06/25 05:56:20;;;;;;;;;;;;;;;;;;5094552;28;20516;-63
2023/06/25 05:58:48;;;;;;;11.55;7.03;;;;;;;;;;5095597;28;19935;-60
2023/06/25 06:01:15;;;;;;;8.02;7.07;;;;;;;;;;5095394;28;20504;-62
2023/06/25 06:03:44;;;;;;;9.48;7.20;;;;;;;;;;5095185;28;20059;-62
2023/06/25 06:06:12;;;;;;;9.13;7.32;;;;;;;;;;5095772;28;20507;-61
2023/06/25 06:08:39;;;;;;;9.00;7.10;;;;;;;;;;5093778;28;20052;-62
2023/06/25 06:11:05;;;;;;;8.70;6.80;;;;;;;;;;5093034;28;20052;-63
2023/06/25 06:13:32;;;;;;;7.53;6.60;;;;;;;;;;5095210;28;20481;-62
2023/06/25 06:16:00;;;;;;;8.27;6.47;;;;;;;;;;5095455;28;20453;-62
2023/06/25 06:18:27;;;;;;;8.23;6.30;;;;;;;;;;5094599;28;20057;-62
2023/06/25 06:20:54;;;;;;;7.70;6.97;;;;;;;;;;5094965;28;20477;-62
2023/06/25 06:23:21;;;;;;;7.63;6.18;;;;;;;;;;5095120;28;20397;-62
2023/06/25 06:25:47;;;;;;;7.88;6.90;;;;;;;;;;5092791;28;20497;-61
2023/06/25 06:28:14;;;;;;;7.93;6.70;;;;;;;;;;5095361;28;20408;-62
2023/06/25 06:30:41;;;;;;;8.43;6.53;;;;;;;;;;5095340;28;20060;-62
2023/06/25 06:33:09;;;;;;;8.82;6.70;;;;;;;;;;5094674;28;20381;-62
2023/06/25 06:35:36;;;;;;;6.68;5.97;;;;;;;;;;5094940;28;20052;-62
2023/06/25 06:38:03;;;;;;;7.03;6.07;;;;;;;;;;5093670;28;20055;-61
2023/06/25 06:40:29;;;;;;;8.00;6.13;;;;;;;;;;5092879;28;20369;-63
2023/06/25 06:42:56;;;;;;;8.75;6.28;;;;;;;;;;5094049;28;20492;-61
2023/06/25 06:45:23;;;;;;;7.35;6.25;;;;;;;;;;5095031;28;20052;-62
2023/06/25 06:47:50;;;;;;;6.57;5.97;;;;;;;;;;5094985;28;20048;-62
2023/06/25 06:50:18;;;;;;;9.18;7.13;;;;;;;;;;5095046;28;20083;-62
2023/06/25 06:52:46;;;;;;;6.88;6.18;;;;;;;;;;5094376;28;20051;-62
2023/06/25 06:55:12;;;;;;;6.18;5.57;;;;;;;;;;5084042;28;20480;-62
2023/06/25 06:57:39;;;;;;;7.32;6.63;;;;;;;;;;5094300;28;20052;-61
2023/06/25 07:00:07;;;;;;;8.32;6.63;;;;;;;;;;5086292;28;20056;-62
2023/06/25 07:02:34;;;;;;;6.80;6.10;;;;;;;;;;5094750;28;20048;-62
2023/06/25 07:05:02;;;;;;;6.90;5.75;;;;;;;;;;5086380;28;20056;-62
2023/06/25 07:07:30;;;;;;;6.53;5.93;;;;;;;;;;5094267;28;20048;-62
2023/06/25 07:09:56;;;;;;;6.07;5.47;;;;;;;;;;5083611;28;20404;-62
2023/06/25 07:12:23;;;;;;;7.03;5.68;;;;;;;;;;5094024;28;20416;-62
2023/06/25 07:14:50;;;;;;;7.40;5.80;;;;;;;;;;5094113;28;20052;-62
2023/06/25 07:17:17;;;;;;;7.97;6.10;;;;;;;;;;5093917;28;20059;-62
2023/06/25 07:19:44;;;;;;;6.47;5.88;;;;;;;;;;5094245;28;20059;-62
2023/06/25 07:22:10;;;;;;;6.95;6.05;;;;;;;;;;5093007;28;20059;-62
2023/06/25 07:24:38;;;;;;;6.43;5.82;;;;;;;;;;5091009;28;20404;-60
2023/06/25 07:27:06;;;;;;;6.15;5.40;;;;;;;;;;5091966;28;20048;-61
2023/06/25 07:29:32;;;;;;;6.32;5.70;;;;;;;;;;5093586;28;20067;-61
2023/06/25 07:31:59;;;;;;;5.72;5.18;;;;;;;;;;5089545;28;20546;-60
2023/06/25 07:34:26;;;;;;;5.97;5.13;;;;;;;;;;5093653;28;20401;-61
2023/06/25 07:36:53;;;;;;;4.82;4.28;;;;;;;;;;5093473;28;20499;-61
2023/06/25 07:39:29;;;;;;;5.70;5.10;;;;;;;;;;5091613;28;20377;-60
2023/06/25 07:41:57;;;;;;;5.60;4.15;;;;;;;;;;5093755;28;20507;-60
2023/06/25 07:44:24;;;;;;;4.97;4.47;;;;;;;;;;5093482;28;20139;-60
2023/06/25 07:46:50;;;;;;;6.45;4.40;;;;;;;;;;5093378;28;20469;-61
2023/06/25 07:49:17;;;;;;;5.32;4.45;;;;;;;;;;5093534;28;20059;-60
2023/06/25 07:51:45;;;;;;;4.53;4.10;;;;;;;;;;5089188;28;20487;-60
2023/06/25 07:54:12;;;;;;;4.72;4.03;;;;;;;;;;5090782;28;20063;-60
2023/06/25 07:56:40;;;;;;;4.65;4.25;;;;;;;;;;5092983;28;20055;-61
2023/06/25 07:59:08;;;;;;;3.72;3.42;;;;;;;;;;5093475;28;20058;-61
2023/06/25 08:01:35;;;;;;;6.20;4.83;;;;;;;;;;5093127;28;20048;-61
2023/06/25 08:04:02;;;;;;;5.90;4.57;;;;;;;;;;5093172;28;20055;-62
2023/06/25 08:06:29;;;;;;;4.70;4.20;;;;;;;;;;5093514;28;20063;-62
2023/06/25 08:08:55;;;;;;;4.28;3.88;;;;;;;;;;5090667;28;20063;-61
2023/06/25 08:11:22;;;;;;;4.57;4.00;;;;;;;;;;5092428;28;20519;-63
2023/06/25 08:13:49;;;;;;;5.20;4.63;;;;;;;;;;5089536;28;20048;-62
2023/06/25 08:16:17;;;;;;;4.78;4.38;;;;;;;;;;5092886;28;20066;-62
2023/06/25 08:18:44;;;;;;;4.05;3.67;;;;;;;;;;5092548;28;20485;-63
2023/06/25 08:21:12;;;;;;;4.07;3.67;;;;;;;;;;5092477;28;20052;-61
2023/06/25 08:23:38;;;;;;;4.68;3.90;;;;;;;;;;5089892;28;20056;-62
2023/06/25 08:26:05;;;;;;;5.10;4.18;;;;;;;;;;5092877;28;20052;-62
2023/06/25 08:28:45;;;;;;;4.90;4.20;;;;;;;;;;5092535;28;20062;-63
2023/06/25 08:31:11;;;;;;;4.57;3.88;;;;;;;;;;5092829;28;20048;-62
2023/06/25 08:33:39;;;;;;;4.47;3.90;;;;;;;;;;5092718;28;20070;-62
2023/06/25 08:36:06;;;;;;;8.18;3.88;;;;;;;;;;5092901;28;20048;-62
2023/06/25 08:38:34;;;;;;;4.70;3.67;;;;;;;;;;5089411;28;20400;-62
2023/06/25 08:41:01;;;;;;;4.05;3.75;;;;;;;;;;5092544;28;20052;-62
2023/06/25 08:43:28;;;;;;;4.43;3.80;;;;;;;;;;5092070;28;20052;-61
2023/06/25 08:45:54;;;;;;;4.25;3.85;;;;;;;;;;5092204;28;20051;-61
2023/06/25 08:48:23;;;;;;;4.20;3.80;;;;;;;;;;5092504;28;20155;-61
2023/06/25 08:50:52;;;;;;;4.68;3.75;;;;;;;;;;5092418;28;20063;-62
2023/06/25 08:53:19;;;;;;;3.92;3.53;;;;;;;;;;5090386;28;20048;-64
2023/06/25 08:55:47;;;;;;;4.10;3.70;;;;;;;;;;5092602;28;20476;-62
2023/06/25 08:58:14;;;;;;;4.10;3.58;;;;;;;;;;5091795;28;20048;-61
2023/06/25 09:00:41;;;;;;;4.30;3.90;;;;;;;;;;5091696;28;20056;-62
2023/06/25 09:03:08;;;;;;;4.13;3.72;;;;;;;;;;5092377;28;20059;-62
2023/06/25 09:05:35;;;;;;;3.92;3.53;;;;;;;;;;5092379;28;20052;-63
2023/06/25 09:08:03;;;;;;;4.28;3.67;;;;;;;;;;5089421;28;20059;-63
2023/06/25 09:10:31;;;;;;;3.65;3.35;;;;;;;;;;5092625;28;20063;-62
2023/06/25 09:12:58;;;;;;;;;;;;;;;;;;5093024;28;20052;-63
2023/06/25 09:15:24;;;;;;;3.97;3.38;;;;;;;;;;5092356;28;19920;-63
2023/06/25 09:17:54;;;;;;;3.60;3.30;;;;;;;;;;5092208;28;20449;-63
2023/06/25 09:20:21;;;;;;;4.88;3.60;;;;;;;;;;5092232;28;20481;-63
2023/06/25 09:22:51;;;;;;;3.80;3.50;;;;;;;;;;5089908;28;20414;-63
2023/06/25 09:25:21;;;;;;;4.07;3.50;;;;;;;;;;5090571;28;20053;-63
2023/06/25 09:27:48;;;;;;;4.10;3.35;;;;;;;;;;5091015;28;20412;-63
2023/06/25 09:30:17;;;;;;;3.83;3.53;;;;;;;;;;5091954;28;20424;-63
2023/06/25 09:32:50;;;;;;;3.78;3.40;;;;;;;;;;5092253;28;20056;-63
2023/06/25 09:35:21;;;;;;;3.58;3.28;;;;;;;;;;5092166;28;20063;-63
2023/06/25 09:37:47;;;;;;;4.20;3.80;;;;;;;;;;5088763;28;20060;-63
2023/06/25 09:40:14;;;;;;;3.90;3.42;;;;;;;;;;5087157;28;20409;-64
2023/06/25 09:42:43;;;;;;;3.83;3.53;;;;;;;;;;5092117;28;20051;-62
2023/06/25 09:45:13;;;;;;;3.50;3.20;;;;;;;;;;5092234;28;20048;-62
2023/06/25 09:47:41;;;;;;;3.90;3.53;;;;;;;;;;5092024;28;20044;-63
2023/06/25 09:50:08;;;;;;;5.45;3.55;;;;;;;;;;5092083;28;20059;-63
2023/06/25 09:52:35;;;;;;;;;;;;;;;;;;5091156;28;20477;-62
2023/06/25 09:55:03;;;;;;;3.75;3.45;;;;;;;;;;5090891;28;19927;-63
2023/06/25 09:57:29;;;;;;;3.70;3.00;;;;;;;;;;5091868;28;20040;-61
2023/06/25 09:59:58;;;;;;;3.95;3.63;;;;;;;;;;5091515;28;20052;-62
2023/06/25 10:02:25;;;;;;;3.63;2.95;;;;;;;;;;5091400;28;20052;-63
2023/06/25 10:04:52;;;;;;;4.93;4.07;;;;;;;;;;5092089;28;20404;-63
2023/06/25 10:07:19;;;;;;;4.10;3.70;;;;;;;;;;5089888;28;20079;-63
2023/06/25 10:09:52;;;;;;;4.85;3.30;;;;;;;;;;5085370;28;20155;-62
2023/06/25 10:12:19;;;;;;;3.97;3.47;;;;;;;;;;5071666;28;20049;-63
2023/06/25 10:14:47;;;;;;;3.38;3.08;;;;;;;;;;5075208;28;20056;-64
2023/06/25 10:17:15;;;;;;;4.43;3.78;;;;;;;;;;5075012;28;20059;-63
2023/06/25 10:19:51;;;;;;;3.67;3.38;;;;;;;;;;5087695;28;20059;-62
2023/06/25 10:22:22;;;;;;;3.75;3.45;;;;;;;;;;5095069;28;20504;-63
2023/06/25 10:24:49;;;;;;;3.85;3.47;;;;;;;;;;5111195;28;20055;-63
2023/06/25 10:27:21;;;;;;;3.72;3.42;;;;;;;;;;5115436;28;20055;-62
2023/06/25 10:29:48;;;;;;;4.03;3.50;;;;;;;;;;5115726;28;20078;-61
2023/06/25 10:32:18;;;;;;;3.80;3.30;;;;;;;;;;5115038;28;20063;-61
2023/06/25 10:34:45;;;;;;;3.53;3.22;;;;;;;;;;5115173;28;20051;-61
2023/06/25 10:37:14;;;;;;;4.10;3.70;;;;;;;;;;5113574;28;20052;-62
2023/06/25 10:39:41;;;;;;;3.67;3.20;;;;;;;;;;5094073;28;20048;-61
2023/06/25 10:42:09;;;;;;;3.92;3.38;;;;;;;;;;5094168;28;20059;-61
2023/06/25 10:44:36;;;;;;;3.45;3.15;;;;;;;;;;5094463;28;20058;-62
2023/06/25 10:47:03;;;;;;;3.78;3.47;;;;;;;;;;5094747;28;20052;-62
2023/06/25 10:49:32;;;;;;;3.85;3.45;;;;;;;;;;5094657;28;20070;-62
2023/06/25 10:51:59;;;;;;;3.70;3.40;;;;;;;;;;5094378;28;20052;-62
2023/06/25 10:54:26;;;;;;;3.72;3.42;;;;;;;;;;5093058;28;20396;-62
2023/06/25 10:56:53;;;;;;;;;;;;;;;;;;5093868;28;20051;-62
2023/06/25 10:59:22;;;;;;;3.60;3.30;;;;;;;;;;5093897;28;20272;-62
2023/06/25 11:01:49;;;;;;;3.97;3.67;;;;;;;;;;5094488;28;20056;-62
2023/06/25 11:04:15;;;;;;;;;;;;;;;;;;5095162;28;20059;-62
2023/06/25 11:06:42;;;;;;;;;;;;;;;;;;5094477;28;19920;-62
2023/06/25 11:09:10;;;;;;;3.53;3.22;;;;;;;;;;5091880;28;19927;-62
2023/06/25 11:11:38;;;;;;;3.50;3.20;;;;;;;;;;5094305;28;20405;-61
2023/06/25 11:14:07;;;;;;;4.50;3.05;;;;;;;;;;5092122;28;20064;-62
2023/06/25 11:16:34;;;;;;;3.60;3.30;;;;;;;;;;5093685;28;20082;-62
2023/06/25 11:19:01;;;;;;;3.72;3.42;;;;;;;;;;5092662;28;20048;-62
2023/06/25 11:21:33;;;;;;;3.90;3.60;;;;;;;;;;5094160;28;20063;-62
2023/06/25 11:24:05;;;;;;;3.88;3.58;;;;;;;;;;5091225;28;20511;-62
2023/06/25 11:26:39;;;;;;;3.63;3.33;;;;;;;;;;5094285;28;20051;-62
2023/06/25 11:29:06;;;;;;;4.72;3.78;;;;;;;;;;5088435;28;20052;-62
2023/06/25 11:31:40;;;;;;;4.20;3.38;;;;;;;;;;5111458;28;20082;-62
2023/06/25 11:34:08;;;;;;;4.00;3.25;;;;;;;;;;5092697;28;20058;-62
2023/06/25 11:36:34;;;;;;;3.40;3.10;;;;;;;;;;5105431;28;20055;-62
2023/06/25 11:39:03;;;;;;;3.53;3.22;;;;;;;;;;5110826;28;20480;-62
2023/06/25 11:41:29;;;;;;;3.75;3.45;;;;;;;;;;5114470;28;20066;-63
2023/06/25 11:43:56;;;;;;;;;;;;;;;;;;5114660;28;20058;-63
2023/06/25 11:46:22;;;;;;;;;;;;;;;;;;5114784;28;19919;-62
2023/06/25 11:48:49;;;;;;;;;;;;;;;;;;5114342;28;19926;-63
2023/06/25 11:51:15;;;;;;;;;;;;;;;;;;5114353;28;19920;-63
2023/06/25 11:53:43;;;;;;;3.90;3.30;;;;;;;;;;5108266;28;19927;-64
2023/06/25 11:56:10;;;;;;;3.58;3.28;;;;;;;;;;5114296;28;20499;-64
2023/06/25 11:58:37;;;;;;;;;;;;;;;;;;5114536;28;20472;-63
2023/06/25 12:01:03;;;;;;;3.83;3.53;;;;;;;;;;5113984;28;20376;-64
2023/06/25 12:03:30;;;;;;;;;;;;;;;;;;5114481;28;20074;-64
2023/06/25 12:05:57;;;;;;;3.47;3.17;;;;;;;;;;5113629;28;19927;-64
2023/06/25 12:08:23;;;;;;;;;;;;;;;;;;5106184;28;20054;-63
2023/06/25 12:10:51;;;;;;;3.75;3.30;;;;;;;;;;5108174;28;19919;-64
2023/06/25 12:13:18;;;;;;;3.72;3.42;;;;;;;;;;5113944;28;20385;-63
2023/06/25 12:15:44;;;;;;;;;;;;;;;;;;5114579;28;20047;-63
2023/06/25 12:18:11;;;;;;;3.47;3.17;;;;;;;;;;5113718;28;19919;-64
2023/06/25 12:20:38;;;;;;;;;;;;;;;;;;5114388;28;20058;-64
2023/06/25 12:23:04;;;;;;;3.33;3.03;;;;;;;;;;5107576;28;19920;-64
2023/06/25 12:25:31;;;;;;;;;;;;;;;;;;5114302;28;20070;-63
2023/06/25 12:28:00;;;;;;;3.35;3.05;;;;;;;;;;5100459;28;20391;-65
2023/06/25 12:30:27;;;;;;;3.22;2.92;;;;;;;;;;5098459;28;20048;-64
2023/06/25 12:32:53;;;;;;;;;;;;;;;;;;5113365;28;20051;-63
2023/06/25 12:35:21;;;;;;;;;;;;;;;;;;5113402;28;19920;-63
2023/06/25 12:37:48;;;;;;;3.85;3.50;;;;;;;;;;5106780;28;19927;-63
2023/06/25 12:40:15;;;;;;;4.95;3.55;;;;;;;;;;5113196;28;20062;-62
2023/06/25 12:42:42;;;;;;;3.78;3.38;;;;;;;;;;5113357;28;20408;-63
2023/06/25 12:45:10;;;;;;;3.55;3.25;;;;;;;;;;5113364;28;20404;-61
2023/06/25 12:47:37;;;;;;;3.55;3.25;;;;;;;;;;5112872;28;20066;-61
2023/06/25 12:50:03;;;;;;;3.88;3.35;;;;;;;;;;5111748;28;20048;-60
2023/06/25 12:52:31;;;;;;;3.60;3.30;;;;;;;;;;5109082;28;20063;-60
2023/06/25 12:54:58;;;;;;;3.67;3.38;;;;;;;;;;5111177;28;20047;-63
2023/06/25 12:57:25;;;;;;;4.10;3.70;;;;;;;;;;5113035;28;20052;-62
2023/06/25 12:59:52;;;;;;;3.73;3.40;;;;;;;;;;5113119;28;20048;-63
2023/06/25 13:02:20;;;;;;;3.70;3.40;;;;;;;;;;5112754;28;20051;-62
2023/06/25 13:04:47;;;;;;;4.00;3.60;;;;;;;;;;5112702;28;20846;-62
2023/06/25 13:07:13;;;;;;;3.53;3.22;;;;;;;;;;5111125;28;20047;-62
2023/06/25 13:09:40;;;;;;;6.13;3.65;;;;;;;;;;5109498;28;20055;-63
2023/06/25 13:12:07;;;;;;;3.87;3.53;;;;;;;;;;5092423;28;20052;-62
2023/06/25 13:14:34;;;;;;;3.70;3.38;;;;;;;;;;5092212;28;20500;-62
2023/06/25 13:17:01;;;;;;;4.27;3.87;;;;;;;;;;5092146;28;20063;-62
2023/06/25 13:19:29;;;;;;;4.43;3.33;;;;;;;;;;5092281;28;20063;-63
2023/06/25 13:21:56;;;;;;;4.07;3.53;;;;;;;;;;5091560;28;20048;-62
2023/06/25 13:24:22;;;;;;;3.67;3.37;;;;;;;;;;5108877;28;20051;-62
2023/06/25 13:26:51;;;;;;;3.53;3.22;;;;;;;;;;5112931;28;20070;-62
2023/06/25 13:29:18;;;;;;;4.70;3.25;;;;;;;;;;5105594;28;20048;-63
2023/06/25 13:31:44;;;;;;;4.43;3.63;;;;;;;;;;5111100;28;20055;-63
2023/06/25 13:34:11;;;;;;;3.30;3.00;;;;;;;;;;5112482;28;20137;-62
2023/06/25 13:36:39;;;;;;;3.57;3.27;;;;;;;;;;5111760;28;20373;-63
2023/06/25 13:39:09;;;;;;;4.13;3.80;;;;;;;;;;5103832;28;20062;-64
2023/06/25 13:41:35;;;;;;;3.50;3.20;;;;;;;;;;5112322;28;20047;-63
2023/06/25 13:44:02;;;;;;;3.83;3.30;;;;;;;;;;5112327;28;20063;-62
2023/06/25 13:46:29;;;;;;;3.60;3.30;;;;;;;;;;5112613;28;20066;-63
2023/06/25 13:48:56;;;;;;;4.20;3.13;;;;;;;;;;5116300;28;20051;-63
2023/06/25 13:51:23;;;;;;;4.00;3.33;;;;;;;;;;5112172;28;20052;-63
2023/06/25 13:53:51;;;;;;;6.40;3.67;;;;;;;;;;5107392;28;20052;-62
2023/06/25 13:56:18;;;;;;;3.97;3.30;;;;;;;;;;5116402;28;20062;-63
2023/06/25 13:58:44;;;;;;;3.53;3.22;;;;;;;;;;5116253;28;20480;-63
2023/06/25 14:01:11;;;;;;;3.88;3.47;;;;;;;;;;5116056;28;20067;-64
2023/06/25 14:03:38;;;;;;;3.72;3.35;;;;;;;;;;5115906;28;20047;-64
2023/06/25 14:06:05;;;;;;;3.60;3.30;;;;;;;;;;5116035;28;20052;-63
2023/06/25 14:08:32;;;;;;;4.60;3.40;;;;;;;;;;5103298;28;20055;-63
2023/06/25 14:11:00;;;;;;;3.47;3.17;;;;;;;;;;5103360;28;20059;-63
2023/06/25 14:13:27;;;;;;;3.60;3.25;;;;;;;;;;5095538;28;20048;-64
2023/06/25 14:15:53;;;;;;;3.42;3.13;;;;;;;;;;5095205;28;20063;-63
2023/06/25 14:18:20;;;;;;;3.85;3.30;;;;;;;;;;5095453;28;20063;-63
2023/06/25 14:20:47;;;;;;;3.95;3.55;;;;;;;;;;5095392;28;20557;-63
2023/06/25 14:23:15;;;;;;;3.50;3.20;;;;;;;;;;5100822;28;20523;-63
2023/06/25 14:25:42;;;;;;;3.50;3.20;;;;;;;;;;5114892;28;20051;-63
2023/06/25 14:28:10;;;;;;;4.05;3.75;;;;;;;;;;5114290;28;20048;-63
2023/06/25 14:30:37;;;;;;;3.78;3.47;;;;;;;;;;5114391;28;20118;-63
2023/06/25 14:33:04;;;;;;;3.53;3.22;;;;;;;;;;5115668;28;20056;-63
2023/06/25 14:35:32;;;;;;;4.30;3.33;;;;;;;;;;5115755;28;20047;-64
2023/06/25 14:37:58;;;;;;;;;;;;;;;;;;5110602;28;20062;-64
2023/06/25 14:40:25;;;;;;;3.95;3.40;;;;;;;;;;5112841;28;19935;-64
2023/06/25 14:42:52;;;;;;;3.85;3.55;;;;;;;;;;5114763;28;20055;-63
2023/06/25 14:45:20;;;;;;;3.85;3.50;;;;;;;;;;5115249;28;20055;-63
2023/06/25 14:47:46;;;;;;;;;;;;;;;;;;5115837;28;20051;-63
2023/06/25 14:50:13;;;;;;;3.72;3.20;;;;;;;;;;5115134;28;19920;-63